Map

Track Data

SID SEASON NUMBER BASIN SUBBASIN NAME ISO_TIME NATURE LAT LON WMO_WIND WMO_PRES WMO_AGENCY TRACK_TYPE DIST2LAND LANDFALL IFLAG USA_AGENCY USA_ATCF_ID USA_LAT USA_LON USA_RECORD USA_STATUS USA_WIND USA_PRES USA_SSHS USA_R34_NE USA_R34_SE USA_R34_SW USA_R34_NW USA_R50_NE USA_R50_SE USA_R50_SW USA_R50_NW USA_R64_NE USA_R64_SE USA_R64_SW USA_R64_NW USA_POCI USA_ROCI USA_RMW USA_EYE TOKYO_LAT TOKYO_LON TOKYO_GRADE TOKYO_WIND TOKYO_PRES TOKYO_R50_DIR TOKYO_R50_LONG TOKYO_R50_SHORT TOKYO_R30_DIR TOKYO_R30_LONG TOKYO_R30_SHORT TOKYO_LAND CMA_LAT CMA_LON CMA_CAT CMA_WIND CMA_PRES HKO_LAT HKO_LON HKO_CAT HKO_WIND HKO_PRES NEWDELHI_LAT NEWDELHI_LON NEWDELHI_GRADE NEWDELHI_WIND NEWDELHI_PRES NEWDELHI_CI NEWDELHI_DP NEWDELHI_POCI REUNION_LAT REUNION_LON REUNION_TYPE REUNION_WIND REUNION_PRES REUNION_TNUM REUNION_CI REUNION_RMW REUNION_R34_NE REUNION_R34_SE REUNION_R34_SW REUNION_R34_NW REUNION_R50_NE REUNION_R50_SE REUNION_R50_SW REUNION_R50_NW REUNION_R64_NE REUNION_R64_SE REUNION_R64_SW REUNION_R64_NW BOM_LAT BOM_LON BOM_TYPE BOM_WIND BOM_PRES BOM_TNUM BOM_CI BOM_RMW BOM_R34_NE BOM_R34_SE BOM_R34_SW BOM_R34_NW BOM_R50_NE BOM_R50_SE BOM_R50_SW BOM_R50_NW BOM_R64_NE BOM_R64_SE BOM_R64_SW BOM_R64_NW BOM_ROCI BOM_POCI BOM_EYE BOM_POS_METHOD BOM_PRES_METHOD NADI_LAT NADI_LON NADI_CAT NADI_WIND NADI_PRES WELLINGTON_LAT WELLINGTON_LON WELLINGTON_WIND WELLINGTON_PRES DS824_LAT DS824_LON DS824_STAGE DS824_WIND DS824_PRES TD9636_LAT TD9636_LON TD9636_STAGE TD9636_WIND TD9636_PRES TD9635_LAT TD9635_LON TD9635_WIND TD9635_PRES TD9635_ROCI NEUMANN_LAT NEUMANN_LON NEUMANN_CLASS NEUMANN_WIND NEUMANN_PRES MLC_LAT MLC_LON MLC_CLASS MLC_WIND MLC_PRES USA_GUST BOM_GUST BOM_GUST_PER REUNION_GUST REUNION_GUST_PER USA_SEAHGT USA_SEARAD_NE USA_SEARAD_SE USA_SEARAD_SW USA_SEARAD_NW STORM_SPEED STORM_DIR
1898087S09133 1898 10 SI WA NOT_NAMED 1898-03-27 12:00:00 NR -9.20000 133.200 main 244 201 __________O___ -1 -9.20000 133.200 7 8 223
1898087S09133 1898 10 SI WA NOT_NAMED 1898-03-27 15:00:00 NR -9.50024 132.922 main 201 162 __________P___ -1 -9.50024 132.922 7 8 222
1898087S09133 1898 10 SI WA NOT_NAMED 1898-03-27 18:00:00 NR -9.81030 132.645 main 160 123 __________P___ -1 -9.81030 132.645 7 8 220
1898087S09133 1898 10 SI WA NOT_NAMED 1898-03-27 21:00:00 NR -10.1402 132.371 main 123 78 __________P___ -1 -10.1402 132.371 7 9 218
1898087S09133 1898 10 SI WA NOT_NAMED 1898-03-28 00:00:00 NR -10.5000 132.100 main 78 35 __________O___ -1 -10.5000 132.100 7 9 215
1898087S09133 1898 10 SI WA NOT_NAMED 1898-03-28 03:00:00 NR -10.8960 131.831 main 40 24 __________P___ -1 -10.8960 131.831 7 10 213
1898087S09133 1898 10 SI WA NOT_NAMED 1898-03-28 06:00:00 NR -11.3196 131.552 main 24 0 __________P___ -1 -11.3196 131.552 7 10 214
1898087S09133 1898 10 SI WA NOT_NAMED 1898-03-28 09:00:00 NR -11.7584 131.247 main 10 10 __________P___ -1 -11.7584 131.247 7 11 216
1898087S09133 1898 10 SI WA NOT_NAMED 1898-03-28 12:00:00 NR -12.2000 130.900 main 15 0 __________O___ -1 -12.2000 130.900 7 11 219
1898087S09133 1898 10 SI WA NOT_NAMED 1898-03-28 15:00:00 NR -12.6451 130.517 main 10 0 __________P___ -1 -12.6451 130.517 7 12 222
1898087S09133 1898 10 SI WA NOT_NAMED 1898-03-28 18:00:00 NR -13.0870 130.090 main 0 0 __________P___ -1 -13.0870 130.090 7 12 225
1898087S09133 1898 10 SI WA NOT_NAMED 1898-03-28 21:00:00 NR -13.5105 129.617 main 21 21 __________P___ -1 -13.5105 129.617 7 13 230
1898087S09133 1898 10 SI WA NOT_NAMED 1898-03-29 00:00:00 NR -13.9000 129.100 main 54 54 __________O___ -1 -13.9000 129.100 7 13 234
1898087S09133 1898 10 SI WA NOT_NAMED 1898-03-29 03:00:00 NR -14.2602 128.547 main 55 0 __________P___ -1 -14.2602 128.547 7 13 238
1898087S09133 1898 10 SI WA NOT_NAMED 1898-03-29 06:00:00 NR -14.5824 127.952 main 0 0 __________P___ -1 -14.5824 127.952 7 13 243
1898087S09133 1898 10 SI WA NOT_NAMED 1898-03-29 09:00:00 NR -14.8633 127.332 main 0 0 __________P___ -1 -14.8633 127.332 7 13 247
1898087S09133 1898 10 SI WA NOT_NAMED 1898-03-29 12:00:00 NR -15.1000 126.700 main 0 0 __________O___ -1 -15.1000 126.700 7 13 251
1898087S09133 1898 10 SI WA NOT_NAMED 1898-03-29 15:00:00 NR -15.2811 126.049 main 0 0 __________P___ -1 -15.2811 126.049 7 13 256
1898087S09133 1898 10 SI WA NOT_NAMED 1898-03-29 18:00:00 NR -15.4228 125.396 main 0 0 __________P___ -1 -15.4228 125.396 7 13 258
1898087S09133 1898 10 SI WA NOT_NAMED 1898-03-29 21:00:00 NR -15.5531 124.771 main 0 0 __________P___ -1 -15.5531 124.771 7 12 256
1898087S09133 1898 10 SI WA NOT_NAMED 1898-03-30 00:00:00 NR -15.7000 124.200 main 24 24 __________O___ -1 -15.7000 124.200 7 11 251
1898087S09133 1898 10 SI WA NOT_NAMED 1898-03-30 03:00:00 NR -15.9025 123.721 main 33 24 __________P___ -1 -15.9025 123.721 7 10 244
1898087S09133 1898 10 SI WA NOT_NAMED 1898-03-30 06:00:00 NR -16.1262 123.297 main 39 22 __________P___ -1 -16.1262 123.297 7 9 240
1898087S09133 1898 10 SI WA NOT_NAMED 1898-03-30 09:00:00 NR -16.3620 122.899 main 11 11 __________P___ -1 -16.3620 122.899 7 9 238
1898087S09133 1898 10 SI WA NOT_NAMED 1898-03-30 12:00:00 NR -16.6000 122.500 main 24 24 __________O___ -1 -16.6000 122.500 7 10 240
1898087S09133 1898 10 SI WA NOT_NAMED 1898-03-30 15:00:00 NR -16.8373 122.033 main 46 38 __________P___ -1 -16.8373 122.033 7 10 242
1898087S09133 1898 10 SI WA NOT_NAMED 1898-03-30 18:00:00 NR -17.0727 121.563 main 67 67 __________P___ -1 -17.0727 121.563 7 10 242
1898087S09133 1898 10 SI WA NOT_NAMED 1898-03-30 21:00:00 NR -17.2967 121.111 main 111 111 __________P___ -1 -17.2967 121.111 7 9 243
1898087S09133 1898 10 SI WA NOT_NAMED 1898-03-31 00:00:00 NR -17.5000 120.700 main 148 148 __________O___ -1 -17.5000 120.700 7 8 243
1898087S09133 1898 10 SI WA NOT_NAMED 1898-03-31 03:00:00 NR -17.6627 120.372 main 170 170 __________P___ -1 -17.6627 120.372 7 7 242
1898087S09133 1898 10 SI WA NOT_NAMED 1898-03-31 06:00:00 NR -17.8065 120.084 main 191 191 __________P___ -1 -17.8065 120.084 7 6 242
1898087S09133 1898 10 SI WA NOT_NAMED 1898-03-31 09:00:00 NR -17.9471 119.804 main 215 211 __________P___ -1 -17.9471 119.804 7 6 242
1898087S09133 1898 10 SI WA NOT_NAMED 1898-03-31 12:00:00 NR -18.1000 119.500 main 214 200 __________O___ -1 -18.1000 119.500 7 8 242
1898087S09133 1898 10 SI WA NOT_NAMED 1898-03-31 15:00:00 NR -18.3022 119.105 main 201 181 __________P___ -1 -18.3022 119.105 7 9 242
1898087S09133 1898 10 SI WA NOT_NAMED 1898-03-31 18:00:00 NR -18.5155 118.686 main 183 172 __________P___ -1 -18.5155 118.686 7 9 242
1898087S09133 1898 10 SI WA NOT_NAMED 1898-03-31 21:00:00 NR -18.7210 118.274 main 177 168 __________P___ -1 -18.7210 118.274 7 8 243
1898087S09133 1898 10 SI WA NOT_NAMED 1898-04-01 00:00:00 NR -18.9000 117.900 main 169 159 __________O___ -1 -18.9000 117.900 7 7 244
1898087S09133 1898 10 SI WA NOT_NAMED 1898-04-01 03:00:00 NR -19.0201 117.614 main 165 158 __________P___ -1 -19.0201 117.614 7 5 247
1898087S09133 1898 10 SI WA NOT_NAMED 1898-04-01 06:00:00 NR -19.1143 117.369 main 162 158 __________P___ -1 -19.1143 117.369 7 5 248
1898087S09133 1898 10 SI WA NOT_NAMED 1898-04-01 09:00:00 NR -19.2014 117.139 main 159 145 __________P___ -1 -19.2014 117.139 7 5 247
1898087S09133 1898 10 SI WA NOT_NAMED 1898-04-01 12:00:00 NR -19.3000 116.900 main 145 134 __________O___ -1 -19.3000 116.900 7 5 245
1898087S09133 1898 10 SI WA NOT_NAMED 1898-04-01 15:00:00 NR -19.4242 116.631 main 134 116 __________P___ -1 -19.4242 116.631 7 6 243
1898087S09133 1898 10 SI WA NOT_NAMED 1898-04-01 18:00:00 NR -19.5708 116.336 main 119 113 __________P___ -1 -19.5708 116.336 7 7 242
1898087S09133 1898 10 SI WA NOT_NAMED 1898-04-01 21:00:00 NR -19.7319 116.023 main 124 115 __________P___ -1 -19.7319 116.023 7 7 241
1898087S09133 1898 10 SI WA NOT_NAMED 1898-04-02 00:00:00 NR -19.9000 115.700 main 123 __________O___ -1 -19.9000 115.700 7 7 241

About IBTrACS Database

This database is a web-friendly format of International Best Track Archive for Climate Stewardship (IBTrACS), a global best track data archive curated by NOAA dating back to 1842.

Updated: 2021-10-21